Regina, KY (41559)

4:03 PM EDT on August 28, 2015 (GMT -0400)
Head of Greasy Creek | | Change Station
CLOSE
Current Station
Personal Weather Station
Location: Shelbiana, KY
Elevation: 1322 ft
Nearby Weather Stations

Elev 1322 ft 37.35 °N, 82.49 °W | Updated 22 seconds ago

Partly Cloudy
Partly Cloudy
75.2 °F
Feels Like 75 °F
N
0.0
Wind Variable Wind from SSW
Gusts 0.0 mph

Today
High -- | Low -- °F
--% Chance of Precip.
Yesterday
High -- | Low -- °F
Precip. -- in
6:56 AM 8:04 PM
Waxing Gibbous, 99% visible
Pressure 30.24 in
Visibility 10.0 miles
Clouds Mostly Cloudy 4300 ft
Mostly Cloudy 4900 ft
Overcast 5500 ft
Heat Index 75 °F
Dew Point 70 °F
Humidity 83%
Rainfall 0.00 in
Snow Depth Not available.
UV 2.0 out of 12
Pollen 8.60 out of 12
Air Quality Not available.
Flu Activity Not available.
METAR KLNP 281939Z AUTO 04003KT 10SM BKN043 BKN049 OVC055 25/14 A3024 RMK AO2
Pressure 30.24 in
Visibility 10.0 miles
Clouds Mostly Cloudy 4300 ft
Mostly Cloudy 4900 ft
Overcast 5500 ft
Heat Index 75 °F
Dew Point 70 °F
Humidity 83%
Rainfall 0.00 in
Snow Depth Not available.
UV 2.0 out of 12
Pollen 8.60 out of 12
Air Quality Not available.
Flu Activity Not available.
METAR KLNP 281939Z AUTO 04003KT 10SM BKN043 BKN049 OVC055 25/14 A3024 RMK AO2

10-Day Weather Forecast

×

Almanac

Astronomy

Aug. 28, 2015 Rise Set
Actual Time
Civil Twilight
Nautical Twilight
Astronomical Twilight
Moon
Length of Visible Light
Length of Day
Tomorrow will be .
, % of the Moon is Illuminated

Today's Extremes

State Highs State Lows

Community

WunderPhotos

Upload Photos

1,850,467 photos uploaded!

WunderBlogs® & News

Nearby

Air Quality

  Air Quality AQ Index Pollutant
Not available.

Snow Depth

Station Depth Elevation

Earthquake Activity

City Distance Mag. Time & Date
Minimum magnitude displayed is 2.5.

Coastal Water Temperatures

Place Temperature

Stations

Nearby Weather Stations

Station Location Temp. Windchill Dew Point Humidity Wind Precip. Elev Updated Type